sensor_id;sensor_type;location;lat;lon;timestamp;P1;durP1;ratioP1;P2;durP2;ratioP2
72674;SDS011;60752;53.962;9.614;2023-10-31T00:11:55;6.80;;;3.70;;
72674;SDS011;60752;53.962;9.614;2023-10-31T00:41:57;7.15;;;3.92;;
72674;SDS011;60752;53.962;9.614;2023-10-31T01:11:58;7.43;;;3.30;;
72674;SDS011;60752;53.962;9.614;2023-10-31T01:42:00;7.13;;;3.83;;
72674;SDS011;60752;53.962;9.614;2023-10-31T02:12:02;7.83;;;4.00;;
72674;SDS011;60752;53.962;9.614;2023-10-31T02:42:04;8.70;;;4.37;;
72674;SDS011;60752;53.962;9.614;2023-10-31T03:12:06;11.00;;;6.35;;
72674;SDS011;60752;53.962;9.614;2023-10-31T03:42:08;10.07;;;5.47;;
72674;SDS011;60752;53.962;9.614;2023-10-31T04:12:09;11.53;;;5.57;;
72674;SDS011;60752;53.962;9.614;2023-10-31T04:42:11;11.83;;;5.03;;
72674;SDS011;60752;53.962;9.614;2023-10-31T05:12:13;10.27;;;5.00;;
72674;SDS011;60752;53.962;9.614;2023-10-31T05:42:14;11.52;;;4.82;;
72674;SDS011;60752;53.962;9.614;2023-10-31T06:12:16;9.00;;;4.50;;
72674;SDS011;60752;53.962;9.614;2023-10-31T06:42:17;10.33;;;3.47;;
72674;SDS011;60752;53.962;9.614;2023-10-31T07:12:19;6.83;;;2.73;;
72674;SDS011;60752;53.962;9.614;2023-10-31T07:42:21;5.83;;;2.30;;
72674;SDS011;60752;53.962;9.614;2023-10-31T08:12:22;5.13;;;2.00;;
72674;SDS011;60752;53.962;9.614;2023-10-31T08:42:24;3.57;;;1.30;;
72674;SDS011;60752;53.962;9.614;2023-10-31T09:12:26;1.30;;;0.60;;
72674;SDS011;60752;53.962;9.614;2023-10-31T09:42:27;1.30;;;0.60;;
72674;SDS011;60752;53.962;9.614;2023-10-31T10:12:29;1.60;;;0.60;;
72674;SDS011;60752;53.962;9.614;2023-10-31T10:42:32;1.50;;;0.60;;
72674;SDS011;60752;53.962;9.614;2023-10-31T11:12:34;1.57;;;0.60;;
72674;SDS011;60752;53.962;9.614;2023-10-31T11:42:37;3.80;;;1.40;;
72674;SDS011;60752;53.962;9.614;2023-10-31T12:12:39;2.10;;;0.80;;
72674;SDS011;60752;53.962;9.614;2023-10-31T12:42:41;2.23;;;0.90;;
72674;SDS011;60752;53.962;9.614;2023-10-31T13:12:44;2.30;;;0.90;;
72674;SDS011;60752;53.962;9.614;2023-10-31T13:42:46;2.30;;;0.90;;
72674;SDS011;60752;53.962;9.614;2023-10-31T14:12:48;3.40;;;1.37;;
72674;SDS011;60752;53.962;9.614;2023-10-31T14:42:49;3.20;;;1.10;;
72674;SDS011;60752;53.962;9.614;2023-10-31T15:12:51;3.00;;;1.13;;
72674;SDS011;60752;53.962;9.614;2023-10-31T15:42:53;3.85;;;0.88;;
72674;SDS011;60752;53.962;9.614;2023-10-31T16:12:54;3.17;;;1.40;;
72674;SDS011;60752;53.962;9.614;2023-10-31T16:42:56;6.70;;;3.07;;
72674;SDS011;60752;53.962;9.614;2023-10-31T17:12:57;3.53;;;1.60;;
72674;SDS011;60752;53.962;9.614;2023-10-31T17:42:59;11.60;;;5.03;;
72674;SDS011;60752;53.962;9.614;2023-10-31T18:13:01;9.20;;;4.38;;
72674;SDS011;60752;53.962;9.614;2023-10-31T18:43:02;12.20;;;5.70;;
72674;SDS011;60752;53.962;9.614;2023-10-31T19:13:04;7.70;;;3.77;;
72674;SDS011;60752;53.962;9.614;2023-10-31T19:43:06;16.40;;;7.13;;
72674;SDS011;60752;53.962;9.614;2023-10-31T20:13:07;21.80;;;9.23;;
72674;SDS011;60752;53.962;9.614;2023-10-31T20:43:09;8.88;;;3.90;;
72674;SDS011;60752;53.962;9.614;2023-10-31T21:13:10;4.60;;;2.13;;
72674;SDS011;60752;53.962;9.614;2023-10-31T21:43:12;6.23;;;3.07;;
72674;SDS011;60752;53.962;9.614;2023-10-31T22:13:14;5.77;;;3.13;;
72674;SDS011;60752;53.962;9.614;2023-10-31T22:43:15;6.83;;;3.03;;
72674;SDS011;60752;53.962;9.614;2023-10-31T23:13:17;5.38;;;2.53;;
72674;SDS011;60752;53.962;9.614;2023-10-31T23:43:18;8.27;;;2.87;;
